Terminal Aerodrome Forecast
Issued by NWS Sterling, VA

Current Version | Previous Version | Graphics & Text | Print | Product List | Glossary On
Versions: 1 2 3 4 5 6 7 8 9 10 11 12 13 14 15 16 17 18 19 20
844
FTUS41 KLWX 280540
TAFMRB
TAF
KMRB 280540Z 2806/2906 00000KT 2SM BR OVC008
     FM281100 05004KT 3SM -SHRA BR OVC008
     FM281600 09006KT P6SM OVC015
     FM282100 09006KT 5SM -SHRA OVC015
     FM290300 09005KT 3SM BR OVC008=

USA.gov is the U.S. government's official web portal to all federal, state and local government web resources and services.